DKH1526 ZMCK-ZJSY
Flight info
| Callsign | DKH1526 |
|---|---|
| Flight time | 4h 28m |
| Altitude | 29100 |
| Route | ISMIN2D ISMIN Y655 NOLAD V674 NIXAL/K0857S0950 B208 SQ/K0883S0920 W45 URBIL/K0880S0980 W45 LYA/K0882S0950 W45 ML/K0882S0980 W45 RUXIL W53 YIH V88 ONEMI R343 WUY/K0882S1010 W169 ISGEG/K0882S1040 W169 RUNEG/K0882S1010 V41 DABUB DABUB1A |
| Aircraft | B739/M-SDE2E3FGHIRWXY/LB1 |
Departure
| Time | 2026-04-28 12:12 |
|---|---|
| Airport | Ulaanbaatar Chinggis Khaan International Airport (ZMCK) |
Arrival
| Time | 2026-04-28 16:41 |
|---|---|
| Airport | Sanya Phoenix International Airport (ZJSY) |
| Time | Latitude | Longitude | Altitude | Speed | Heading |
|---|---|---|---|---|---|
| 2026-04-28 11:49 | 47.65027 | 106.82153 | 4500 ft | 0 kts | 23° |
| 2026-04-28 11:57 | 47.65007 | 106.82140 | 4500 ft | 4 kts | 23° |
| 2026-04-28 11:57 | 47.64986 | 106.82127 | 4501 ft | 4 kts | 27° |
| 2026-04-28 11:58 | 47.64965 | 106.82105 | 4504 ft | 4 kts | 50° |
| 2026-04-28 11:58 | 47.64952 | 106.82072 | 4503 ft | 4 kts | 81° |
| 2026-04-28 11:58 | 47.64952 | 106.82033 | 4502 ft | 4 kts | 104° |
| 2026-04-28 11:58 | 47.64958 | 106.82001 | 4501 ft | 0 kts | 104° |
| 2026-04-28 12:02 | 47.64958 | 106.82003 | 4501 ft | 1 kts | 104° |
| 2026-04-28 12:02 | 47.64954 | 106.82029 | 4504 ft | 4 kts | 104° |
| 2026-04-28 12:02 | 47.64946 | 106.82071 | 4504 ft | 4 kts | 104° |
| 2026-04-28 12:02 | 47.64939 | 106.82113 | 4500 ft | 4 kts | 104° |
| 2026-04-28 12:03 | 47.64931 | 106.82156 | 4502 ft | 4 kts | 104° |
| 2026-04-28 12:03 | 47.64923 | 106.82201 | 4503 ft | 5 kts | 104° |
| 2026-04-28 12:03 | 47.64913 | 106.82260 | 4504 ft | 6 kts | 104° |
| 2026-04-28 12:03 | 47.64902 | 106.82321 | 4501 ft | 6 kts | 104° |
| 2026-04-28 12:04 | 47.64892 | 106.82381 | 4501 ft | 6 kts | 104° |
| 2026-04-28 12:04 | 47.64881 | 106.82440 | 4501 ft | 6 kts | 104° |
| 2026-04-28 12:04 | 47.64871 | 106.82499 | 4501 ft | 6 kts | 104° |
| 2026-04-28 12:04 | 47.64850 | 106.82556 | 4501 ft | 7 kts | 137° |
| 2026-04-28 12:05 | 47.64799 | 106.82597 | 4501 ft | 9 kts | 152° |
| 2026-04-28 12:05 | 47.64750 | 106.82672 | 4500 ft | 11 kts | 114° |
| 2026-04-28 12:05 | 47.64730 | 106.82778 | 4494 ft | 11 kts | 105° |
| 2026-04-28 12:05 | 47.64712 | 106.82882 | 4494 ft | 10 kts | 104° |
| 2026-04-28 12:06 | 47.64694 | 106.82982 | 4492 ft | 10 kts | 104° |
| 2026-04-28 12:06 | 47.64677 | 106.83080 | 4494 ft | 10 kts | 104° |
| 2026-04-28 12:06 | 47.64661 | 106.83175 | 4495 ft | 9 kts | 104° |
| 2026-04-28 12:06 | 47.64644 | 106.83268 | 4495 ft | 9 kts | 105° |
| 2026-04-28 12:07 | 47.64628 | 106.83358 | 4491 ft | 9 kts | 105° |
| 2026-04-28 12:07 | 47.64611 | 106.83458 | 4494 ft | 11 kts | 104° |
| 2026-04-28 12:07 | 47.64589 | 106.83583 | 4494 ft | 14 kts | 104° |
| 2026-04-28 12:07 | 47.64563 | 106.83732 | 4492 ft | 16 kts | 105° |
| 2026-04-28 12:08 | 47.64535 | 106.83889 | 4490 ft | 16 kts | 104° |
| 2026-04-28 12:08 | 47.64508 | 106.84041 | 4490 ft | 15 kts | 104° |
| 2026-04-28 12:08 | 47.64482 | 106.84185 | 4490 ft | 11 kts | 105° |
| 2026-04-28 12:08 | 47.64467 | 106.84261 | 4492 ft | 7 kts | 113° |
| 2026-04-28 12:09 | 47.64439 | 106.84313 | 4492 ft | 7 kts | 143° |
| 2026-04-28 12:09 | 47.64414 | 106.84329 | 4492 ft | 0 kts | 167° |
| 2026-04-28 12:10 | 47.64386 | 106.84330 | 4493 ft | 7 kts | 187° |
| 2026-04-28 12:10 | 47.64336 | 106.84310 | 4493 ft | 7 kts | 201° |
| 2026-04-28 12:10 | 47.64303 | 106.84259 | 4490 ft | 7 kts | 248° |
| 2026-04-28 12:10 | 47.64301 | 106.84220 | 4490 ft | 0 kts | 280° |
| 2026-04-28 12:11 | 47.64322 | 106.84095 | 4493 ft | 41 kts | 284° |
| 2026-04-28 12:11 | 47.64447 | 106.83379 | 4490 ft | 101 kts | 284° |
| 2026-04-28 12:11 | 47.64673 | 106.82114 | 4494 ft | 151 kts | 284° |
| 2026-04-28 12:12 | 47.64975 | 106.80407 | 4510 ft | 189 kts | 285° |
| 2026-04-28 12:12 | 47.65323 | 106.78461 | 4828 ft | 206 kts | 284° |
| 2026-04-28 12:12 | 47.65689 | 106.76236 | 5022 ft | 233 kts | 283° |
| 2026-04-28 12:12 | 47.66073 | 106.73851 | 5566 ft | 245 kts | 285° |
| 2026-04-28 12:13 | 47.66493 | 106.71311 | 6102 ft | 248 kts | 277° |
| 2026-04-28 12:13 | 47.66462 | 106.68861 | 7126 ft | 239 kts | 258° |
| 2026-04-28 12:13 | 47.65647 | 106.66622 | 7318 ft | 262 kts | 225° |
| 2026-04-28 12:13 | 47.64117 | 106.65024 | 7649 ft | 276 kts | 208° |
| 2026-04-28 12:14 | 47.62265 | 106.64212 | 8239 ft | 281 kts | 188° |
| 2026-04-28 12:14 | 47.60318 | 106.64014 | 8913 ft | 280 kts | 185° |
| 2026-04-28 12:14 | 47.58361 | 106.63892 | 9488 ft | 284 kts | 184° |
| 2026-04-28 12:14 | 47.56362 | 106.63777 | 9955 ft | 290 kts | 184° |
| 2026-04-28 12:15 | 47.54344 | 106.63655 | 10274 ft | 303 kts | 184° |
| 2026-04-28 12:15 | 47.52171 | 106.63513 | 10406 ft | 320 kts | 184° |
| 2026-04-28 12:15 | 47.49878 | 106.63357 | 10544 ft | 338 kts | 184° |
| 2026-04-28 12:15 | 47.47467 | 106.63190 | 10664 ft | 355 kts | 184° |
| 2026-04-28 12:16 | 47.44940 | 106.63010 | 10801 ft | 372 kts | 184° |
| 2026-04-28 12:16 | 47.42300 | 106.62820 | 10914 ft | 387 kts | 184° |
| 2026-04-28 12:16 | 47.39565 | 106.62621 | 11085 ft | 399 kts | 184° |
| 2026-04-28 12:16 | 47.36776 | 106.62419 | 11461 ft | 403 kts | 184° |
| 2026-04-28 12:17 | 47.33973 | 106.62280 | 11959 ft | 405 kts | 178° |
| 2026-04-28 12:17 | 47.31191 | 106.63043 | 12323 ft | 410 kts | 164° |
| 2026-04-28 12:17 | 47.28447 | 106.64243 | 12758 ft | 413 kts | 164° |
| 2026-04-28 12:17 | 47.25681 | 106.65442 | 13227 ft | 415 kts | 164° |
| 2026-04-28 12:18 | 47.22903 | 106.66618 | 13664 ft | 417 kts | 164° |
| 2026-04-28 12:18 | 47.20096 | 106.67780 | 14078 ft | 419 kts | 165° |
| 2026-04-28 12:18 | 47.17286 | 106.68922 | 14495 ft | 421 kts | 165° |
| 2026-04-28 12:18 | 47.14439 | 106.70067 | 14907 ft | 424 kts | 165° |
| 2026-04-28 12:19 | 47.11623 | 106.71196 | 15325 ft | 426 kts | 165° |
| 2026-04-28 12:19 | 47.08724 | 106.72355 | 15746 ft | 427 kts | 165° |
| 2026-04-28 12:19 | 47.05847 | 106.73505 | 16142 ft | 430 kts | 165° |
| 2026-04-28 12:19 | 47.02952 | 106.74661 | 16524 ft | 432 kts | 165° |
| 2026-04-28 12:20 | 47.00048 | 106.75820 | 16897 ft | 434 kts | 165° |
| 2026-04-28 12:20 | 46.97121 | 106.76987 | 17252 ft | 436 kts | 165° |
| 2026-04-28 12:20 | 46.94231 | 106.78136 | 17603 ft | 438 kts | 165° |
| 2026-04-28 12:20 | 46.91232 | 106.79330 | 17963 ft | 441 kts | 165° |
| 2026-04-28 12:21 | 46.88303 | 106.80494 | 18275 ft | 443 kts | 165° |
| 2026-04-28 12:21 | 46.85333 | 106.81756 | 18602 ft | 446 kts | 158° |
| 2026-04-28 12:21 | 46.82671 | 106.84048 | 18905 ft | 447 kts | 138° |
| 2026-04-28 12:21 | 46.80560 | 106.87359 | 19311 ft | 445 kts | 128° |
| 2026-04-28 12:22 | 46.78620 | 106.90900 | 19667 ft | 447 kts | 128° |
| 2026-04-28 12:22 | 46.76685 | 106.94480 | 19951 ft | 450 kts | 127° |
| 2026-04-28 12:22 | 46.74736 | 106.98080 | 20268 ft | 452 kts | 128° |
| 2026-04-28 12:22 | 46.72773 | 107.01675 | 20621 ft | 453 kts | 128° |
| 2026-04-28 12:23 | 46.70793 | 107.05272 | 20937 ft | 455 kts | 128° |
| 2026-04-28 12:23 | 46.68801 | 107.08867 | 21217 ft | 457 kts | 128° |
| 2026-04-28 12:23 | 46.66792 | 107.12474 | 21525 ft | 459 kts | 128° |
| 2026-04-28 12:23 | 46.64803 | 107.16034 | 21816 ft | 460 kts | 128° |
| 2026-04-28 12:24 | 46.62752 | 107.19698 | 22093 ft | 462 kts | 128° |
| 2026-04-28 12:24 | 46.60740 | 107.23286 | 22356 ft | 464 kts | 128° |
| 2026-04-28 12:24 | 46.58695 | 107.26929 | 22604 ft | 465 kts | 128° |
| 2026-04-28 12:24 | 46.56644 | 107.30579 | 22860 ft | 467 kts | 128° |
| 2026-04-28 12:25 | 46.54587 | 107.34236 | 23131 ft | 468 kts | 128° |
| 2026-04-28 12:25 | 46.52522 | 107.37904 | 23387 ft | 470 kts | 128° |
| 2026-04-28 12:25 | 46.50449 | 107.41579 | 23623 ft | 471 kts | 128° |
| 2026-04-28 12:25 | 46.48363 | 107.45274 | 23848 ft | 473 kts | 128° |
| 2026-04-28 12:26 | 46.46272 | 107.48971 | 24091 ft | 475 kts | 128° |
| 2026-04-28 12:26 | 46.44175 | 107.52675 | 24333 ft | 476 kts | 128° |
| 2026-04-28 12:26 | 46.42071 | 107.56387 | 24599 ft | 476 kts | 128° |
| 2026-04-28 12:26 | 46.39968 | 107.60091 | 24852 ft | 477 kts | 128° |
| 2026-04-28 12:27 | 46.37853 | 107.63815 | 25131 ft | 478 kts | 128° |
| 2026-04-28 12:27 | 46.35767 | 107.67481 | 25464 ft | 476 kts | 128° |
| 2026-04-28 12:27 | 46.33661 | 107.71176 | 25864 ft | 473 kts | 128° |
| 2026-04-28 12:27 | 46.31576 | 107.74830 | 26280 ft | 470 kts | 128° |
| 2026-04-28 12:28 | 46.29489 | 107.78480 | 26668 ft | 468 kts | 128° |
| 2026-04-28 12:28 | 46.27421 | 107.82089 | 27036 ft | 465 kts | 128° |
| 2026-04-28 12:28 | 46.25362 | 107.85679 | 27428 ft | 462 kts | 128° |
| 2026-04-28 12:28 | 46.23317 | 107.89241 | 27806 ft | 460 kts | 128° |
| 2026-04-28 12:29 | 46.19249 | 107.96314 | 28548 ft | 455 kts | 128° |
| 2026-04-28 12:29 | 46.17232 | 107.99819 | 28933 ft | 452 kts | 128° |
| 2026-04-28 12:29 | 46.15227 | 108.03296 | 29197 ft | 448 kts | 128° |
| 2026-04-28 12:30 | 46.13235 | 108.06748 | 29192 ft | 449 kts | 128° |
| 2026-04-28 12:30 | 46.09256 | 108.13630 | 29204 ft | 450 kts | 128° |
| 2026-04-28 12:31 | 46.05242 | 108.20551 | 29217 ft | 451 kts | 128° |
| 2026-04-28 12:31 | 46.01208 | 108.27489 | 29218 ft | 452 kts | 128° |
| 2026-04-28 12:32 | 45.97157 | 108.34438 | 29214 ft | 453 kts | 128° |
| 2026-04-28 12:32 | 45.93104 | 108.41376 | 29234 ft | 454 kts | 128° |
| 2026-04-28 12:32 | 45.91077 | 108.44839 | 29569 ft | 452 kts | 128° |
| 2026-04-28 12:33 | 45.89062 | 108.48276 | 29980 ft | 447 kts | 128° |
| 2026-04-28 12:33 | 45.87067 | 108.51676 | 30404 ft | 443 kts | 128° |
| 2026-04-28 12:33 | 45.85085 | 108.55053 | 30672 ft | 442 kts | 128° |
| 2026-04-28 12:34 | 45.81115 | 108.61801 | 30929 ft | 447 kts | 128° |
| 2026-04-28 12:34 | 45.79111 | 108.65201 | 31181 ft | 445 kts | 128° |
| 2026-04-28 12:34 | 45.77108 | 108.68593 | 31196 ft | 447 kts | 128° |
| 2026-04-28 12:35 | 45.72578 | 108.74662 | 31208 ft | 448 kts | 144° |
| 2026-04-28 12:35 | 45.68171 | 108.78562 | 31219 ft | 448 kts | 146° |
| 2026-04-28 12:36 | 45.62849 | 108.83223 | 31221 ft | 448 kts | 146° |
| 2026-04-28 12:36 | 45.57537 | 108.87917 | 31220 ft | 449 kts | 146° |
| 2026-04-28 12:37 | 45.52239 | 108.92624 | 31219 ft | 448 kts | 145° |
| 2026-04-28 12:37 | 45.46940 | 108.97329 | 31229 ft | 448 kts | 145° |
| 2026-04-28 12:38 | 45.41640 | 109.02024 | 31231 ft | 449 kts | 145° |
| 2026-04-28 12:38 | 45.36369 | 109.06682 | 31230 ft | 449 kts | 145° |
| 2026-04-28 12:39 | 45.31053 | 109.11370 | 31230 ft | 449 kts | 145° |
| 2026-04-28 12:39 | 45.25731 | 109.16050 | 31230 ft | 450 kts | 145° |
| 2026-04-28 12:40 | 45.20402 | 109.20727 | 31231 ft | 449 kts | 145° |
| 2026-04-28 12:40 | 45.15077 | 109.25390 | 31237 ft | 449 kts | 145° |
| 2026-04-28 12:41 | 45.09794 | 109.30006 | 31240 ft | 449 kts | 145° |
| 2026-04-28 12:41 | 45.04465 | 109.34650 | 31237 ft | 449 kts | 145° |
| 2026-04-28 12:42 | 44.99140 | 109.39284 | 31239 ft | 449 kts | 145° |
| 2026-04-28 12:42 | 44.93815 | 109.43905 | 31245 ft | 449 kts | 144° |
| 2026-04-28 12:43 | 44.88498 | 109.48511 | 31246 ft | 448 kts | 144° |
| 2026-04-28 12:43 | 44.83217 | 109.53075 | 31248 ft | 448 kts | 144° |
| 2026-04-28 12:44 | 44.77894 | 109.57667 | 31247 ft | 448 kts | 144° |
| 2026-04-28 12:44 | 44.72587 | 109.62232 | 31251 ft | 447 kts | 144° |
| 2026-04-28 12:45 | 44.67287 | 109.66782 | 31260 ft | 446 kts | 144° |
| 2026-04-28 12:45 | 44.61979 | 109.71329 | 31257 ft | 446 kts | 144° |
| 2026-04-28 12:46 | 44.56716 | 109.75831 | 31261 ft | 446 kts | 144° |
| 2026-04-28 12:46 | 44.51413 | 109.80356 | 31261 ft | 445 kts | 144° |
| 2026-04-28 12:47 | 44.46122 | 109.84861 | 31267 ft | 445 kts | 144° |
| 2026-04-28 12:47 | 44.40829 | 109.89359 | 31252 ft | 445 kts | 144° |
| 2026-04-28 12:48 | 44.35525 | 109.93843 | 31258 ft | 445 kts | 144° |
| 2026-04-28 12:48 | 44.30227 | 109.98313 | 31254 ft | 444 kts | 144° |
| 2026-04-28 12:49 | 44.24966 | 110.02739 | 31263 ft | 444 kts | 144° |
| 2026-04-28 12:49 | 44.19679 | 110.07189 | 31266 ft | 444 kts | 143° |
| 2026-04-28 12:50 | 44.14392 | 110.11623 | 31264 ft | 444 kts | 144° |
| 2026-04-28 12:50 | 44.09094 | 110.16059 | 31273 ft | 445 kts | 143° |
| 2026-04-28 12:51 | 44.03790 | 110.20494 | 31271 ft | 445 kts | 144° |
| 2026-04-28 12:51 | 43.98476 | 110.24913 | 31276 ft | 446 kts | 144° |
| 2026-04-28 12:52 | 43.93152 | 110.29342 | 31276 ft | 445 kts | 144° |
| 2026-04-28 12:52 | 43.87869 | 110.33728 | 31276 ft | 445 kts | 144° |
| 2026-04-28 12:53 | 43.82548 | 110.38136 | 31282 ft | 445 kts | 144° |
| 2026-04-28 12:53 | 43.77225 | 110.42536 | 31284 ft | 445 kts | 144° |
| 2026-04-28 12:54 | 43.71898 | 110.46928 | 31283 ft | 446 kts | 144° |
| 2026-04-28 12:54 | 43.66557 | 110.51326 | 31293 ft | 446 kts | 144° |
| 2026-04-28 12:55 | 43.61214 | 110.55715 | 31295 ft | 447 kts | 144° |
| 2026-04-28 12:55 | 43.55861 | 110.60104 | 31291 ft | 448 kts | 144° |
| 2026-04-28 12:56 | 43.50533 | 110.64461 | 31288 ft | 449 kts | 144° |
| 2026-04-28 12:56 | 43.45160 | 110.68848 | 31302 ft | 449 kts | 144° |
| 2026-04-28 12:57 | 43.39773 | 110.73237 | 31296 ft | 451 kts | 144° |
| 2026-04-28 12:57 | 43.34370 | 110.77631 | 31303 ft | 451 kts | 144° |
| 2026-04-28 12:58 | 43.28955 | 110.82022 | 31313 ft | 452 kts | 144° |
| 2026-04-28 12:58 | 43.23535 | 110.86411 | 31304 ft | 453 kts | 144° |
| 2026-04-28 12:59 | 43.17744 | 110.89958 | 31326 ft | 462 kts | 158° |
| 2026-04-28 12:59 | 43.11613 | 110.92467 | 31316 ft | 463 kts | 159° |
| 2026-04-28 13:00 | 43.05430 | 110.94996 | 31316 ft | 464 kts | 158° |
| 2026-04-28 13:00 | 42.99255 | 110.97573 | 31325 ft | 464 kts | 158° |
| 2026-04-28 13:01 | 42.93070 | 111.00179 | 31320 ft | 465 kts | 158° |
| 2026-04-28 13:01 | 42.86887 | 111.02780 | 31326 ft | 465 kts | 158° |
| 2026-04-28 13:02 | 42.80737 | 111.05358 | 31331 ft | 465 kts | 158° |
| 2026-04-28 13:02 | 42.74538 | 111.07953 | 31334 ft | 465 kts | 158° |
| 2026-04-28 13:03 | 42.68341 | 111.10546 | 31328 ft | 466 kts | 158° |
| 2026-04-28 13:03 | 42.62133 | 111.13131 | 31346 ft | 467 kts | 158° |
| 2026-04-28 13:04 | 42.55917 | 111.15714 | 31339 ft | 468 kts | 158° |
| 2026-04-28 13:04 | 42.49692 | 111.18296 | 31342 ft | 468 kts | 158° |
| 2026-04-28 13:05 | 42.43464 | 111.20876 | 31345 ft | 468 kts | 158° |
| 2026-04-28 13:05 | 42.37218 | 111.23453 | 31344 ft | 469 kts | 158° |
| 2026-04-28 13:06 | 42.30977 | 111.26027 | 31345 ft | 469 kts | 158° |
| 2026-04-28 13:06 | 42.24726 | 111.28603 | 31352 ft | 469 kts | 158° |
| 2026-04-28 13:07 | 42.18515 | 111.31157 | 31350 ft | 469 kts | 159° |
| 2026-04-28 13:07 | 42.12263 | 111.33735 | 31344 ft | 470 kts | 158° |
| 2026-04-28 13:08 | 42.06014 | 111.36302 | 31350 ft | 470 kts | 159° |
| 2026-04-28 13:08 | 41.99770 | 111.38859 | 31343 ft | 468 kts | 159° |
| 2026-04-28 13:09 | 41.93542 | 111.41415 | 31353 ft | 467 kts | 160° |
| 2026-04-28 13:09 | 41.87316 | 111.43959 | 31363 ft | 467 kts | 160° |
| 2026-04-28 13:10 | 41.81087 | 111.46502 | 31358 ft | 469 kts | 160° |
| 2026-04-28 13:10 | 41.74833 | 111.49051 | 31362 ft | 470 kts | 160° |
| 2026-04-28 13:11 | 41.68604 | 111.51583 | 31360 ft | 471 kts | 160° |
| 2026-04-28 13:11 | 41.62320 | 111.54131 | 31359 ft | 472 kts | 160° |
| 2026-04-28 13:12 | 41.56020 | 111.56678 | 31357 ft | 473 kts | 160° |
| 2026-04-28 13:12 | 41.49712 | 111.59228 | 31363 ft | 474 kts | 160° |
| 2026-04-28 13:13 | 41.43385 | 111.61777 | 31361 ft | 475 kts | 161° |
| 2026-04-28 13:13 | 41.37051 | 111.64323 | 31365 ft | 475 kts | 161° |
| 2026-04-28 13:14 | 41.30714 | 111.66868 | 31368 ft | 476 kts | 161° |
| 2026-04-28 13:14 | 41.24417 | 111.69390 | 31368 ft | 476 kts | 162° |
| 2026-04-28 13:15 | 41.18070 | 111.71929 | 31368 ft | 476 kts | 162° |
| 2026-04-28 13:15 | 41.11725 | 111.74462 | 31363 ft | 477 kts | 163° |
| 2026-04-28 13:16 | 41.05364 | 111.76994 | 31370 ft | 477 kts | 163° |
| 2026-04-28 13:16 | 40.99004 | 111.79521 | 31361 ft | 477 kts | 164° |
| 2026-04-28 13:17 | 40.92642 | 111.82041 | 31386 ft | 477 kts | 165° |
| 2026-04-28 13:17 | 40.86265 | 111.84568 | 31390 ft | 478 kts | 165° |
| 2026-04-28 13:18 | 40.79915 | 111.87076 | 31398 ft | 480 kts | 165° |
| 2026-04-28 13:18 | 40.73472 | 111.89614 | 31395 ft | 481 kts | 166° |
| 2026-04-28 13:19 | 40.67021 | 111.91689 | 31403 ft | 479 kts | 172° |
| 2026-04-28 13:19 | 40.60467 | 111.93409 | 31390 ft | 480 kts | 173° |
| 2026-04-28 13:20 | 40.53877 | 111.94879 | 31391 ft | 482 kts | 175° |
| 2026-04-28 13:20 | 40.47279 | 111.96313 | 31392 ft | 479 kts | 175° |
| 2026-04-28 13:21 | 40.40691 | 111.97783 | 31399 ft | 481 kts | 175° |
| 2026-04-28 13:21 | 40.34085 | 111.99372 | 31384 ft | 483 kts | 174° |
| 2026-04-28 13:22 | 40.27513 | 112.00989 | 31389 ft | 484 kts | 175° |
| 2026-04-28 13:22 | 40.20876 | 112.02603 | 31389 ft | 484 kts | 175° |
| 2026-04-28 13:23 | 40.14264 | 112.04239 | 31396 ft | 483 kts | 175° |
| 2026-04-28 13:23 | 40.07673 | 112.05856 | 31386 ft | 481 kts | 175° |
| 2026-04-28 13:24 | 40.01117 | 112.07488 | 31387 ft | 479 kts | 175° |
| 2026-04-28 13:24 | 39.94570 | 112.09093 | 31385 ft | 477 kts | 175° |
| 2026-04-28 13:25 | 39.88087 | 112.10661 | 31380 ft | 475 kts | 176° |
| 2026-04-28 13:25 | 39.81592 | 112.12248 | 31378 ft | 474 kts | 175° |
| 2026-04-28 13:26 | 39.75114 | 112.13832 | 31373 ft | 474 kts | 176° |
| 2026-04-28 13:26 | 39.68611 | 112.15401 | 31371 ft | 476 kts | 175° |
| 2026-04-28 13:27 | 39.62085 | 112.16988 | 31377 ft | 480 kts | 176° |
| 2026-04-28 13:27 | 39.55507 | 112.18573 | 31371 ft | 481 kts | 176° |
| 2026-04-28 13:28 | 39.50028 | 112.19908 | 31381 ft | 482 kts | 176° |
| 2026-04-28 13:28 | 39.43451 | 112.21492 | 31368 ft | 480 kts | 176° |
| 2026-04-28 13:29 | 39.36885 | 112.23115 | 31354 ft | 481 kts | 177° |
| 2026-04-28 13:29 | 39.30309 | 112.24722 | 31366 ft | 480 kts | 177° |
| 2026-04-28 13:30 | 39.23758 | 112.26353 | 31367 ft | 478 kts | 178° |
| 2026-04-28 13:30 | 39.17216 | 112.27944 | 31367 ft | 477 kts | 178° |
| 2026-04-28 13:31 | 39.07446 | 112.30325 | 31366 ft | 476 kts | 179° |
| 2026-04-28 13:31 | 39.00957 | 112.31907 | 31373 ft | 473 kts | 179° |
| 2026-04-28 13:32 | 38.94490 | 112.33496 | 31360 ft | 473 kts | 179° |
| 2026-04-28 13:32 | 38.88049 | 112.35036 | 31371 ft | 470 kts | 180° |
| 2026-04-28 13:33 | 38.81670 | 112.36577 | 31359 ft | 469 kts | 180° |
| 2026-04-28 13:33 | 38.75278 | 112.38105 | 31345 ft | 466 kts | 181° |
| 2026-04-28 13:34 | 38.68898 | 112.39641 | 31365 ft | 469 kts | 181° |
| 2026-04-28 13:34 | 38.62481 | 112.41201 | 31353 ft | 469 kts | 181° |
| 2026-04-28 13:35 | 38.56079 | 112.42729 | 31352 ft | 468 kts | 181° |
| 2026-04-28 13:35 | 38.49665 | 112.44281 | 31364 ft | 469 kts | 181° |
| 2026-04-28 13:36 | 38.43276 | 112.45821 | 31363 ft | 467 kts | 182° |
| 2026-04-28 13:36 | 38.36892 | 112.47311 | 31364 ft | 466 kts | 182° |
| 2026-04-28 13:37 | 38.30517 | 112.48810 | 31369 ft | 465 kts | 182° |
| 2026-04-28 13:37 | 38.24152 | 112.50309 | 31369 ft | 465 kts | 182° |
| 2026-04-28 13:38 | 38.17784 | 112.51810 | 31371 ft | 466 kts | 182° |
| 2026-04-28 13:38 | 38.11419 | 112.53301 | 31372 ft | 464 kts | 182° |
| 2026-04-28 13:39 | 38.05116 | 112.54781 | 31367 ft | 464 kts | 182° |
| 2026-04-28 13:39 | 37.98773 | 112.56268 | 31368 ft | 463 kts | 183° |
| 2026-04-28 13:40 | 37.92435 | 112.57749 | 31366 ft | 463 kts | 183° |
| 2026-04-28 13:40 | 37.86111 | 112.59224 | 31367 ft | 462 kts | 183° |
| 2026-04-28 13:41 | 37.79784 | 112.60749 | 31364 ft | 462 kts | 182° |
| 2026-04-28 13:41 | 37.73472 | 112.62334 | 31365 ft | 466 kts | 180° |
| 2026-04-28 13:42 | 37.67181 | 112.64449 | 31367 ft | 468 kts | 178° |
| 2026-04-28 13:42 | 37.60912 | 112.66569 | 31361 ft | 465 kts | 179° |
| 2026-04-28 13:43 | 37.54672 | 112.68647 | 31366 ft | 463 kts | 179° |
| 2026-04-28 13:43 | 37.48451 | 112.70719 | 31367 ft | 462 kts | 179° |
| 2026-04-28 13:44 | 37.42232 | 112.72796 | 31372 ft | 463 kts | 179° |
| 2026-04-28 13:44 | 37.36001 | 112.74874 | 31381 ft | 464 kts | 178° |
| 2026-04-28 13:45 | 37.29740 | 112.76960 | 31361 ft | 466 kts | 178° |
| 2026-04-28 13:45 | 37.23474 | 112.79007 | 31368 ft | 466 kts | 178° |
| 2026-04-28 13:46 | 37.17209 | 112.81027 | 31341 ft | 462 kts | 180° |
| 2026-04-28 13:46 | 37.10969 | 112.83220 | 31367 ft | 466 kts | 177° |
| 2026-04-28 13:47 | 37.04722 | 112.85253 | 31362 ft | 463 kts | 179° |
| 2026-04-28 13:47 | 36.98526 | 112.87263 | 31366 ft | 462 kts | 178° |
| 2026-04-28 13:48 | 36.92319 | 112.89318 | 31342 ft | 461 kts | 178° |
| 2026-04-28 13:48 | 36.86137 | 112.91370 | 31355 ft | 459 kts | 178° |
| 2026-04-28 13:49 | 36.79972 | 112.93400 | 31352 ft | 456 kts | 178° |
| 2026-04-28 13:49 | 36.73835 | 112.95408 | 31352 ft | 455 kts | 178° |
| 2026-04-28 13:50 | 36.67719 | 112.97426 | 31344 ft | 454 kts | 178° |
| 2026-04-28 13:50 | 36.61604 | 112.99440 | 31344 ft | 455 kts | 178° |
| 2026-04-28 13:51 | 36.55479 | 113.01443 | 31340 ft | 456 kts | 178° |
| 2026-04-28 13:51 | 36.49324 | 113.03454 | 31335 ft | 458 kts | 178° |
| 2026-04-28 13:52 | 36.43156 | 113.05466 | 31334 ft | 459 kts | 178° |
| 2026-04-28 13:52 | 36.36981 | 113.07477 | 31335 ft | 459 kts | 178° |
| 2026-04-28 13:53 | 36.30809 | 113.09487 | 31324 ft | 459 kts | 178° |
| 2026-04-28 13:53 | 36.24668 | 113.10656 | 31334 ft | 429 kts | 195° |
| 2026-04-28 13:54 | 36.21757 | 113.10200 | 31333 ft | 416 kts | 203° |
| 2026-04-28 13:54 | 36.19026 | 113.09209 | 31328 ft | 403 kts | 212° |
| 2026-04-28 13:54 | 36.13911 | 113.06460 | 31331 ft | 401 kts | 212° |
| 2026-04-28 13:55 | 36.08785 | 113.03748 | 31328 ft | 401 kts | 212° |
| 2026-04-28 13:55 | 36.03675 | 113.01074 | 31325 ft | 401 kts | 212° |
| 2026-04-28 13:56 | 35.98531 | 112.98394 | 31324 ft | 401 kts | 212° |
| 2026-04-28 13:56 | 35.93383 | 112.95722 | 31305 ft | 401 kts | 211° |
| 2026-04-28 13:57 | 35.88239 | 112.93050 | 31326 ft | 401 kts | 211° |
| 2026-04-28 13:57 | 35.83098 | 112.90380 | 31346 ft | 400 kts | 211° |
| 2026-04-28 13:58 | 35.77947 | 112.87713 | 31325 ft | 402 kts | 211° |
| 2026-04-28 13:58 | 35.72780 | 112.85022 | 31322 ft | 404 kts | 211° |
| 2026-04-28 13:59 | 35.67590 | 112.82315 | 31324 ft | 406 kts | 211° |
| 2026-04-28 13:59 | 35.62371 | 112.79606 | 31307 ft | 407 kts | 211° |
| 2026-04-28 14:00 | 35.57150 | 112.76895 | 31320 ft | 407 kts | 211° |
| 2026-04-28 14:00 | 35.51925 | 112.74174 | 31319 ft | 407 kts | 211° |
| 2026-04-28 14:01 | 35.46710 | 112.71449 | 31316 ft | 407 kts | 211° |
| 2026-04-28 14:01 | 35.41494 | 112.68737 | 31302 ft | 407 kts | 211° |
| 2026-04-28 14:02 | 35.36296 | 112.66035 | 31317 ft | 406 kts | 211° |
| 2026-04-28 14:02 | 35.31130 | 112.63356 | 31321 ft | 405 kts | 210° |
| 2026-04-28 14:03 | 35.25942 | 112.60669 | 31286 ft | 405 kts | 210° |
| 2026-04-28 14:03 | 35.20773 | 112.58001 | 31286 ft | 404 kts | 210° |
| 2026-04-28 14:04 | 35.15593 | 112.55342 | 31303 ft | 404 kts | 210° |
| 2026-04-28 14:04 | 35.10372 | 112.52721 | 31297 ft | 409 kts | 207° |
| 2026-04-28 14:05 | 35.04905 | 112.50671 | 31291 ft | 413 kts | 204° |
| 2026-04-28 14:05 | 34.99392 | 112.48714 | 31327 ft | 412 kts | 205° |
| 2026-04-28 14:06 | 34.93877 | 112.46704 | 31298 ft | 414 kts | 205° |
| 2026-04-28 14:06 | 34.88359 | 112.44676 | 31284 ft | 414 kts | 205° |
| 2026-04-28 14:07 | 34.82832 | 112.42656 | 31298 ft | 415 kts | 205° |
| 2026-04-28 14:07 | 34.77287 | 112.40638 | 31299 ft | 418 kts | 203° |
| 2026-04-28 14:08 | 34.71399 | 112.39687 | 31291 ft | 438 kts | 188° |
| 2026-04-28 14:08 | 34.66290 | 112.40089 | 31293 ft | 444 kts | 185° |
| 2026-04-28 14:09 | 34.59121 | 112.40774 | 31279 ft | 444 kts | 185° |
| 2026-04-28 14:09 | 34.52952 | 112.41331 | 31290 ft | 444 kts | 185° |
| 2026-04-28 14:10 | 34.46787 | 112.41860 | 31290 ft | 444 kts | 185° |
| 2026-04-28 14:10 | 34.40628 | 112.42391 | 31303 ft | 443 kts | 185° |
| 2026-04-28 14:11 | 34.34479 | 112.42917 | 31297 ft | 443 kts | 185° |
| 2026-04-28 14:11 | 34.28331 | 112.43437 | 31294 ft | 442 kts | 185° |
| 2026-04-28 14:12 | 34.22185 | 112.43965 | 31296 ft | 443 kts | 185° |
| 2026-04-28 14:12 | 34.16045 | 112.44488 | 31292 ft | 442 kts | 185° |
| 2026-04-28 14:13 | 34.09924 | 112.45008 | 31302 ft | 441 kts | 185° |
| 2026-04-28 14:13 | 34.03807 | 112.45530 | 31300 ft | 440 kts | 185° |
| 2026-04-28 14:14 | 33.97692 | 112.46046 | 31300 ft | 441 kts | 185° |
| 2026-04-28 14:14 | 33.91577 | 112.46541 | 31300 ft | 440 kts | 185° |
| 2026-04-28 14:15 | 33.85458 | 112.47081 | 31298 ft | 442 kts | 185° |
| 2026-04-28 14:15 | 33.79372 | 112.47585 | 31250 ft | 441 kts | 185° |
| 2026-04-28 14:16 | 33.73236 | 112.48117 | 31287 ft | 444 kts | 184° |
| 2026-04-28 14:16 | 33.67060 | 112.48644 | 31295 ft | 447 kts | 185° |
| 2026-04-28 14:17 | 33.60871 | 112.49113 | 31320 ft | 442 kts | 184° |
| 2026-04-28 14:17 | 33.54704 | 112.49733 | 31308 ft | 448 kts | 182° |
| 2026-04-28 14:18 | 33.48522 | 112.50168 | 31304 ft | 445 kts | 185° |
| 2026-04-28 14:18 | 33.42334 | 112.50687 | 31301 ft | 446 kts | 184° |
| 2026-04-28 14:19 | 33.36144 | 112.51248 | 31312 ft | 446 kts | 184° |
| 2026-04-28 14:19 | 33.29959 | 112.51782 | 31299 ft | 446 kts | 184° |
| 2026-04-28 14:20 | 33.24809 | 112.52215 | 31304 ft | 446 kts | 184° |
| 2026-04-28 14:20 | 33.18613 | 112.52738 | 31308 ft | 446 kts | 184° |
| 2026-04-28 14:21 | 33.11413 | 112.53347 | 31299 ft | 446 kts | 184° |
| 2026-04-28 14:21 | 33.06231 | 112.53781 | 31304 ft | 446 kts | 184° |
| 2026-04-28 14:22 | 33.00052 | 112.54300 | 31300 ft | 445 kts | 184° |
| 2026-04-28 14:22 | 32.93883 | 112.54767 | 31299 ft | 440 kts | 188° |
| 2026-04-28 14:23 | 32.87956 | 112.53807 | 31298 ft | 423 kts | 203° |
| 2026-04-28 14:23 | 32.82336 | 112.51747 | 31294 ft | 423 kts | 203° |
| 2026-04-28 14:24 | 32.76695 | 112.49859 | 31290 ft | 425 kts | 201° |
| 2026-04-28 14:24 | 32.70966 | 112.48024 | 31295 ft | 426 kts | 201° |
| 2026-04-28 14:25 | 32.65238 | 112.46182 | 31297 ft | 427 kts | 201° |
| 2026-04-28 14:25 | 32.59499 | 112.44325 | 31294 ft | 428 kts | 201° |
| 2026-04-28 14:26 | 32.53745 | 112.42462 | 31294 ft | 429 kts | 201° |
| 2026-04-28 14:26 | 32.47975 | 112.40595 | 31286 ft | 431 kts | 201° |
| 2026-04-28 14:27 | 32.42182 | 112.38724 | 31287 ft | 432 kts | 201° |
| 2026-04-28 14:27 | 32.36379 | 112.36852 | 31286 ft | 432 kts | 201° |
| 2026-04-28 14:28 | 32.30571 | 112.34980 | 31283 ft | 433 kts | 201° |
| 2026-04-28 14:28 | 32.24766 | 112.33112 | 31288 ft | 433 kts | 201° |
| 2026-04-28 14:29 | 32.18946 | 112.31241 | 31283 ft | 433 kts | 201° |
| 2026-04-28 14:29 | 32.13170 | 112.29386 | 31286 ft | 433 kts | 201° |
| 2026-04-28 14:30 | 32.07350 | 112.27534 | 31283 ft | 434 kts | 199° |
| 2026-04-28 14:30 | 32.01386 | 112.26208 | 31285 ft | 437 kts | 195° |
| 2026-04-28 14:31 | 31.95376 | 112.25059 | 31272 ft | 437 kts | 195° |
| 2026-04-28 14:31 | 31.89369 | 112.23882 | 31282 ft | 437 kts | 195° |
| 2026-04-28 14:32 | 31.83370 | 112.22671 | 31278 ft | 437 kts | 195° |
| 2026-04-28 14:32 | 31.77377 | 112.21454 | 31275 ft | 437 kts | 195° |
| 2026-04-28 14:33 | 31.71389 | 112.20238 | 31273 ft | 437 kts | 195° |
| 2026-04-28 14:33 | 31.65403 | 112.19025 | 31279 ft | 437 kts | 195° |
| 2026-04-28 14:34 | 31.56413 | 112.17209 | 31276 ft | 437 kts | 195° |
| 2026-04-28 14:35 | 31.50413 | 112.15997 | 31274 ft | 438 kts | 195° |
| 2026-04-28 14:35 | 31.44409 | 112.14788 | 31276 ft | 438 kts | 195° |
| 2026-04-28 14:36 | 31.38517 | 112.13224 | 31267 ft | 429 kts | 205° |
| 2026-04-28 14:36 | 31.32962 | 112.10712 | 31277 ft | 428 kts | 206° |
| 2026-04-28 14:37 | 31.27433 | 112.08232 | 31271 ft | 430 kts | 205° |
| 2026-04-28 14:37 | 31.21845 | 112.05769 | 31264 ft | 430 kts | 205° |
| 2026-04-28 14:38 | 31.16252 | 112.03300 | 31280 ft | 429 kts | 205° |
| 2026-04-28 14:38 | 31.10679 | 112.00845 | 31264 ft | 427 kts | 205° |
| 2026-04-28 14:39 | 31.05122 | 111.98403 | 31267 ft | 426 kts | 205° |
| 2026-04-28 14:39 | 30.99577 | 111.95969 | 31268 ft | 426 kts | 205° |
| 2026-04-28 14:40 | 30.94037 | 111.93539 | 31270 ft | 426 kts | 205° |
| 2026-04-28 14:40 | 30.88483 | 111.91107 | 31270 ft | 427 kts | 205° |
| 2026-04-28 14:41 | 30.82914 | 111.88672 | 31267 ft | 428 kts | 205° |
| 2026-04-28 14:41 | 30.77516 | 111.85860 | 31261 ft | 422 kts | 218° |
| 2026-04-28 14:42 | 30.73229 | 111.81260 | 31261 ft | 420 kts | 232° |
| 2026-04-28 14:42 | 30.70216 | 111.75459 | 31268 ft | 421 kts | 240° |
| 2026-04-28 14:43 | 30.67289 | 111.69551 | 31270 ft | 423 kts | 239° |
| 2026-04-28 14:43 | 30.63730 | 111.64114 | 31275 ft | 424 kts | 229° |
| 2026-04-28 14:44 | 30.59789 | 111.59005 | 31217 ft | 425 kts | 229° |
| 2026-04-28 14:44 | 30.55796 | 111.53954 | 31199 ft | 426 kts | 221° |
| 2026-04-28 14:45 | 30.50653 | 111.50475 | 31203 ft | 433 kts | 205° |
| 2026-04-28 14:45 | 30.44757 | 111.48833 | 31207 ft | 439 kts | 194° |
| 2026-04-28 14:46 | 30.38751 | 111.47715 | 31202 ft | 440 kts | 194° |
| 2026-04-28 14:46 | 30.32725 | 111.46575 | 31201 ft | 439 kts | 194° |
| 2026-04-28 14:47 | 30.26702 | 111.45397 | 31193 ft | 439 kts | 195° |
| 2026-04-28 14:47 | 30.20679 | 111.44180 | 31210 ft | 440 kts | 195° |
| 2026-04-28 14:48 | 30.14632 | 111.42982 | 31178 ft | 443 kts | 195° |
| 2026-04-28 14:48 | 30.08552 | 111.41810 | 31189 ft | 443 kts | 195° |
| 2026-04-28 14:49 | 30.02473 | 111.40617 | 31180 ft | 444 kts | 195° |
| 2026-04-28 14:49 | 29.96367 | 111.39416 | 31150 ft | 445 kts | 195° |
| 2026-04-28 14:50 | 29.90247 | 111.38213 | 31171 ft | 447 kts | 194° |
| 2026-04-28 14:50 | 29.84117 | 111.37010 | 31144 ft | 447 kts | 194° |
| 2026-04-28 14:51 | 29.77998 | 111.35810 | 31144 ft | 444 kts | 194° |
| 2026-04-28 14:51 | 29.71903 | 111.34621 | 31163 ft | 444 kts | 194° |
| 2026-04-28 14:52 | 29.65802 | 111.33431 | 31161 ft | 445 kts | 194° |
| 2026-04-28 14:52 | 29.59723 | 111.32242 | 31148 ft | 447 kts | 194° |
| 2026-04-28 14:53 | 29.53590 | 111.31057 | 31141 ft | 447 kts | 194° |
| 2026-04-28 14:53 | 29.47451 | 111.29882 | 31151 ft | 448 kts | 194° |
| 2026-04-28 14:54 | 29.41299 | 111.28701 | 31153 ft | 448 kts | 194° |
| 2026-04-28 14:54 | 29.35145 | 111.27521 | 31155 ft | 449 kts | 194° |
| 2026-04-28 14:55 | 29.28977 | 111.26340 | 31149 ft | 450 kts | 194° |
| 2026-04-28 14:55 | 29.22795 | 111.25158 | 31137 ft | 450 kts | 194° |
| 2026-04-28 14:56 | 29.16618 | 111.23978 | 31146 ft | 450 kts | 194° |
| 2026-04-28 14:56 | 29.10450 | 111.22801 | 31146 ft | 449 kts | 193° |
| 2026-04-28 14:57 | 29.04285 | 111.21626 | 31149 ft | 448 kts | 193° |
| 2026-04-28 14:57 | 28.98128 | 111.20453 | 31142 ft | 448 kts | 193° |
| 2026-04-28 14:58 | 28.91984 | 111.19284 | 31140 ft | 448 kts | 193° |
| 2026-04-28 14:58 | 28.85833 | 111.18116 | 31139 ft | 447 kts | 193° |
| 2026-04-28 14:59 | 28.79692 | 111.16951 | 31136 ft | 448 kts | 193° |
| 2026-04-28 14:59 | 28.73542 | 111.15785 | 31144 ft | 448 kts | 193° |
| 2026-04-28 15:00 | 28.67387 | 111.14619 | 31135 ft | 449 kts | 193° |
| 2026-04-28 15:00 | 28.61261 | 111.13462 | 31130 ft | 449 kts | 193° |
| 2026-04-28 15:01 | 28.55093 | 111.12297 | 31139 ft | 449 kts | 193° |
| 2026-04-28 15:01 | 28.48928 | 111.11133 | 31127 ft | 450 kts | 193° |
| 2026-04-28 15:02 | 28.42724 | 111.09959 | 31123 ft | 451 kts | 193° |
| 2026-04-28 15:02 | 28.36535 | 111.08781 | 31122 ft | 451 kts | 193° |
| 2026-04-28 15:03 | 28.30348 | 111.07618 | 31125 ft | 451 kts | 192° |
| 2026-04-28 15:03 | 28.24158 | 111.06471 | 31123 ft | 451 kts | 192° |
| 2026-04-28 15:04 | 28.17982 | 111.05320 | 31134 ft | 449 kts | 192° |
| 2026-04-28 15:04 | 28.11807 | 111.04161 | 31101 ft | 450 kts | 193° |
| 2026-04-28 15:05 | 28.05619 | 111.03003 | 31090 ft | 451 kts | 193° |
| 2026-04-28 15:05 | 27.99434 | 111.01848 | 31092 ft | 451 kts | 193° |
| 2026-04-28 15:06 | 27.93290 | 111.00702 | 31082 ft | 450 kts | 192° |
| 2026-04-28 15:06 | 27.87127 | 110.99561 | 31092 ft | 448 kts | 192° |
| 2026-04-28 15:07 | 27.80956 | 110.98411 | 31086 ft | 449 kts | 192° |
| 2026-04-28 15:07 | 27.74783 | 110.97257 | 31086 ft | 450 kts | 192° |
| 2026-04-28 15:08 | 27.68614 | 110.96109 | 31086 ft | 450 kts | 192° |
| 2026-04-28 15:08 | 27.62417 | 110.94960 | 31079 ft | 451 kts | 192° |
| 2026-04-28 15:09 | 27.56226 | 110.93812 | 31078 ft | 451 kts | 192° |
| 2026-04-28 15:09 | 27.50036 | 110.92666 | 31082 ft | 451 kts | 192° |
| 2026-04-28 15:10 | 27.43843 | 110.91521 | 31084 ft | 451 kts | 192° |
| 2026-04-28 15:10 | 27.37658 | 110.90380 | 31072 ft | 450 kts | 192° |
| 2026-04-28 15:11 | 27.32525 | 110.89433 | 31088 ft | 450 kts | 192° |
| 2026-04-28 15:11 | 27.26344 | 110.88292 | 31069 ft | 450 kts | 192° |
| 2026-04-28 15:12 | 27.20163 | 110.87153 | 31075 ft | 450 kts | 192° |
| 2026-04-28 15:12 | 27.13983 | 110.86016 | 31072 ft | 450 kts | 192° |
| 2026-04-28 15:13 | 27.07791 | 110.84878 | 31080 ft | 451 kts | 192° |
| 2026-04-28 15:13 | 27.01611 | 110.83744 | 31070 ft | 450 kts | 192° |
| 2026-04-28 15:14 | 26.95431 | 110.82614 | 31071 ft | 450 kts | 192° |
| 2026-04-28 15:14 | 26.89263 | 110.81490 | 31069 ft | 449 kts | 192° |
| 2026-04-28 15:15 | 26.83106 | 110.80362 | 31063 ft | 449 kts | 192° |
| 2026-04-28 15:15 | 26.76941 | 110.79234 | 31070 ft | 449 kts | 192° |
| 2026-04-28 15:16 | 26.70813 | 110.78115 | 31063 ft | 450 kts | 192° |
| 2026-04-28 15:16 | 26.64640 | 110.76993 | 31065 ft | 450 kts | 192° |
| 2026-04-28 15:17 | 26.58457 | 110.75863 | 31070 ft | 450 kts | 192° |
| 2026-04-28 15:17 | 26.52262 | 110.74734 | 31059 ft | 451 kts | 192° |
| 2026-04-28 15:18 | 26.46070 | 110.73611 | 31062 ft | 451 kts | 192° |
| 2026-04-28 15:18 | 26.39871 | 110.72485 | 31075 ft | 452 kts | 192° |
| 2026-04-28 15:19 | 26.33658 | 110.71358 | 31076 ft | 453 kts | 192° |
| 2026-04-28 15:19 | 26.27434 | 110.70195 | 31058 ft | 454 kts | 193° |
| 2026-04-28 15:20 | 26.21173 | 110.69085 | 31039 ft | 455 kts | 192° |
| 2026-04-28 15:20 | 26.14964 | 110.67930 | 31033 ft | 452 kts | 192° |
| 2026-04-28 15:21 | 26.08753 | 110.66838 | 31021 ft | 451 kts | 192° |
| 2026-04-28 15:21 | 26.02557 | 110.65739 | 31063 ft | 451 kts | 192° |
| 2026-04-28 15:22 | 25.96379 | 110.64626 | 31048 ft | 454 kts | 192° |
| 2026-04-28 15:22 | 25.90090 | 110.63493 | 31045 ft | 456 kts | 192° |
| 2026-04-28 15:23 | 25.83845 | 110.62370 | 31049 ft | 458 kts | 192° |
| 2026-04-28 15:23 | 25.77554 | 110.61163 | 31038 ft | 458 kts | 198° |
| 2026-04-28 15:24 | 25.71702 | 110.58571 | 31068 ft | 450 kts | 213° |
| 2026-04-28 15:24 | 25.66437 | 110.54824 | 31023 ft | 451 kts | 214° |
| 2026-04-28 15:25 | 25.61126 | 110.51107 | 31048 ft | 451 kts | 214° |
| 2026-04-28 15:25 | 25.55806 | 110.47428 | 31040 ft | 451 kts | 214° |
| 2026-04-28 15:26 | 25.50573 | 110.43598 | 31042 ft | 450 kts | 216° |
| 2026-04-28 15:26 | 25.45371 | 110.39719 | 31047 ft | 450 kts | 216° |
| 2026-04-28 15:27 | 25.40164 | 110.35872 | 31043 ft | 450 kts | 216° |
| 2026-04-28 15:27 | 25.34972 | 110.31994 | 31039 ft | 451 kts | 216° |
| 2026-04-28 15:28 | 25.29778 | 110.28113 | 31034 ft | 450 kts | 216° |
| 2026-04-28 15:28 | 25.24583 | 110.24240 | 31039 ft | 450 kts | 216° |
| 2026-04-28 15:29 | 25.19418 | 110.20396 | 31041 ft | 451 kts | 216° |
| 2026-04-28 15:29 | 25.14183 | 110.16491 | 31027 ft | 451 kts | 216° |
| 2026-04-28 15:30 | 25.08986 | 110.12608 | 31042 ft | 451 kts | 216° |
| 2026-04-28 15:30 | 25.03782 | 110.08725 | 31043 ft | 451 kts | 216° |
| 2026-04-28 15:31 | 24.98575 | 110.04846 | 31042 ft | 452 kts | 215° |
| 2026-04-28 15:31 | 24.93367 | 110.00973 | 31037 ft | 452 kts | 215° |
| 2026-04-28 15:32 | 24.88145 | 109.97093 | 31037 ft | 453 kts | 216° |
| 2026-04-28 15:32 | 24.82956 | 109.93238 | 31034 ft | 454 kts | 216° |
| 2026-04-28 15:33 | 24.77685 | 109.89326 | 31042 ft | 454 kts | 216° |
| 2026-04-28 15:33 | 24.72478 | 109.85465 | 31041 ft | 455 kts | 216° |
| 2026-04-28 15:34 | 24.67231 | 109.81581 | 31033 ft | 455 kts | 216° |
| 2026-04-28 15:34 | 24.61984 | 109.77691 | 31041 ft | 455 kts | 216° |
| 2026-04-28 15:35 | 24.56743 | 109.73803 | 31038 ft | 455 kts | 216° |
| 2026-04-28 15:35 | 24.48873 | 109.67973 | 31039 ft | 455 kts | 216° |
| 2026-04-28 15:36 | 24.43618 | 109.64084 | 31034 ft | 456 kts | 216° |
| 2026-04-28 15:36 | 24.38361 | 109.60200 | 31036 ft | 456 kts | 216° |
| 2026-04-28 15:37 | 24.33097 | 109.56321 | 31036 ft | 456 kts | 215° |
| 2026-04-28 15:37 | 24.28718 | 109.53099 | 31036 ft | 456 kts | 215° |
| 2026-04-28 15:38 | 24.22560 | 109.48571 | 31029 ft | 456 kts | 215° |
| 2026-04-28 15:38 | 24.17287 | 109.44694 | 31026 ft | 456 kts | 215° |
| 2026-04-28 15:39 | 24.12051 | 109.40849 | 31024 ft | 456 kts | 215° |
| 2026-04-28 15:39 | 24.06780 | 109.36982 | 31026 ft | 456 kts | 215° |
| 2026-04-28 15:40 | 24.01505 | 109.33119 | 31024 ft | 456 kts | 215° |
| 2026-04-28 15:40 | 23.96225 | 109.29255 | 31010 ft | 457 kts | 216° |
| 2026-04-28 15:41 | 23.90931 | 109.25383 | 31018 ft | 458 kts | 216° |
| 2026-04-28 15:41 | 23.85627 | 109.21508 | 31014 ft | 459 kts | 216° |
| 2026-04-28 15:42 | 23.80317 | 109.17633 | 31014 ft | 459 kts | 216° |
| 2026-04-28 15:42 | 23.75043 | 109.13705 | 31005 ft | 459 kts | 218° |
| 2026-04-28 15:43 | 23.69996 | 109.09427 | 31005 ft | 459 kts | 220° |
| 2026-04-28 15:43 | 23.64994 | 109.05082 | 31006 ft | 460 kts | 220° |
| 2026-04-28 15:44 | 23.59960 | 109.00754 | 30993 ft | 461 kts | 220° |
| 2026-04-28 15:44 | 23.54907 | 108.96441 | 30983 ft | 462 kts | 220° |
| 2026-04-28 15:45 | 23.49838 | 108.92129 | 30983 ft | 463 kts | 220° |
| 2026-04-28 15:45 | 23.44764 | 108.87814 | 30981 ft | 463 kts | 220° |
| 2026-04-28 15:46 | 23.39693 | 108.83504 | 30976 ft | 463 kts | 220° |
| 2026-04-28 15:46 | 23.34605 | 108.79185 | 30971 ft | 463 kts | 220° |
| 2026-04-28 15:47 | 23.29522 | 108.74873 | 30969 ft | 463 kts | 220° |
| 2026-04-28 15:47 | 23.24479 | 108.70599 | 30972 ft | 463 kts | 220° |
| 2026-04-28 15:48 | 23.19400 | 108.66295 | 30969 ft | 463 kts | 220° |
| 2026-04-28 15:48 | 23.14323 | 108.61990 | 30961 ft | 463 kts | 220° |
| 2026-04-28 15:49 | 23.09226 | 108.57718 | 30958 ft | 462 kts | 220° |
| 2026-04-28 15:49 | 23.04166 | 108.53411 | 30956 ft | 462 kts | 220° |
| 2026-04-28 15:50 | 22.99101 | 108.49107 | 30960 ft | 462 kts | 220° |
| 2026-04-28 15:50 | 22.94030 | 108.44818 | 30963 ft | 462 kts | 220° |
| 2026-04-28 15:51 | 22.88952 | 108.40531 | 30960 ft | 463 kts | 220° |
| 2026-04-28 15:51 | 22.83867 | 108.36244 | 30966 ft | 463 kts | 220° |
| 2026-04-28 15:52 | 22.78766 | 108.31949 | 30958 ft | 464 kts | 220° |
| 2026-04-28 15:52 | 22.73669 | 108.27660 | 30963 ft | 464 kts | 220° |
| 2026-04-28 15:53 | 22.68560 | 108.23365 | 30960 ft | 465 kts | 220° |
| 2026-04-28 15:53 | 22.63447 | 108.19069 | 30957 ft | 466 kts | 220° |
| 2026-04-28 15:54 | 22.60760 | 108.17114 | 30944 ft | 469 kts | 208° |
| 2026-04-28 15:54 | 22.57681 | 108.15900 | 30973 ft | 474 kts | 196° |
| 2026-04-28 15:54 | 22.54410 | 108.15412 | 30956 ft | 479 kts | 183° |
| 2026-04-28 15:54 | 22.51059 | 108.15669 | 30980 ft | 482 kts | 176° |
| 2026-04-28 15:55 | 22.44379 | 108.16527 | 30963 ft | 485 kts | 176° |
| 2026-04-28 15:55 | 22.37675 | 108.17373 | 30959 ft | 485 kts | 176° |
| 2026-04-28 15:56 | 22.30953 | 108.18162 | 30963 ft | 486 kts | 177° |
| 2026-04-28 15:56 | 22.24208 | 108.18928 | 30959 ft | 487 kts | 177° |
| 2026-04-28 15:57 | 22.19809 | 108.19425 | 30962 ft | 488 kts | 177° |
| 2026-04-28 15:57 | 22.13090 | 108.20187 | 30958 ft | 488 kts | 177° |
| 2026-04-28 15:58 | 22.06294 | 108.20958 | 30963 ft | 488 kts | 176° |
| 2026-04-28 15:58 | 21.99580 | 108.21721 | 30961 ft | 489 kts | 176° |
| 2026-04-28 15:59 | 21.93919 | 108.22368 | 30960 ft | 488 kts | 177° |
| 2026-04-28 15:59 | 21.86076 | 108.23252 | 30962 ft | 486 kts | 177° |
| 2026-04-28 16:00 | 21.79348 | 108.24010 | 30960 ft | 486 kts | 177° |
| 2026-04-28 16:00 | 21.72630 | 108.24769 | 30961 ft | 485 kts | 177° |
| 2026-04-28 16:01 | 21.67057 | 108.25398 | 30961 ft | 484 kts | 177° |
| 2026-04-28 16:01 | 21.60357 | 108.26154 | 30961 ft | 484 kts | 177° |
| 2026-04-28 16:02 | 21.54331 | 108.26832 | 30960 ft | 483 kts | 177° |
| 2026-04-28 16:02 | 21.51197 | 108.27185 | 30954 ft | 483 kts | 177° |
| 2026-04-28 16:03 | 21.45038 | 108.27879 | 30964 ft | 482 kts | 177° |
| 2026-04-28 16:03 | 21.38418 | 108.28623 | 30961 ft | 481 kts | 177° |
| 2026-04-28 16:04 | 21.31764 | 108.29368 | 30959 ft | 481 kts | 178° |
| 2026-04-28 16:04 | 21.25112 | 108.30117 | 30964 ft | 480 kts | 178° |
| 2026-04-28 16:05 | 21.18509 | 108.30121 | 30956 ft | 471 kts | 192° |
| 2026-04-28 16:05 | 21.12055 | 108.28950 | 30953 ft | 470 kts | 193° |
| 2026-04-28 16:06 | 21.05599 | 108.27811 | 30955 ft | 470 kts | 193° |
| 2026-04-28 16:06 | 20.99135 | 108.26736 | 30951 ft | 470 kts | 192° |
| 2026-04-28 16:07 | 20.92684 | 108.25660 | 30951 ft | 469 kts | 193° |
| 2026-04-28 16:08 | 20.83025 | 108.24035 | 30952 ft | 468 kts | 193° |
| 2026-04-28 16:08 | 20.76599 | 108.22954 | 30955 ft | 467 kts | 193° |
| 2026-04-28 16:09 | 20.66986 | 108.21344 | 30961 ft | 465 kts | 193° |
| 2026-04-28 16:10 | 20.57405 | 108.19738 | 30961 ft | 464 kts | 193° |
| 2026-04-28 16:10 | 20.47905 | 108.21059 | 30954 ft | 485 kts | 154° |
| 2026-04-28 16:11 | 20.42712 | 108.25760 | 30965 ft | 494 kts | 139° |
| 2026-04-28 16:11 | 20.37852 | 108.30952 | 30957 ft | 495 kts | 139° |
| 2026-04-28 16:12 | 20.30512 | 108.38692 | 30957 ft | 495 kts | 140° |
| 2026-04-28 16:13 | 20.23689 | 108.45748 | 30963 ft | 495 kts | 140° |
| 2026-04-28 16:14 | 20.14175 | 108.55556 | 30961 ft | 497 kts | 140° |
| 2026-04-28 16:15 | 20.04270 | 108.65760 | 30964 ft | 498 kts | 140° |
| 2026-04-28 16:15 | 19.99292 | 108.70879 | 30956 ft | 498 kts | 140° |
| 2026-04-28 16:16 | 19.91812 | 108.78565 | 30956 ft | 499 kts | 140° |
| 2026-04-28 16:17 | 19.86811 | 108.83695 | 30565 ft | 500 kts | 141° |
| 2026-04-28 16:17 | 19.84316 | 108.86254 | 30314 ft | 498 kts | 141° |
| 2026-04-28 16:17 | 19.81821 | 108.88813 | 30072 ft | 499 kts | 141° |
| 2026-04-28 16:17 | 19.79309 | 108.91382 | 29825 ft | 503 kts | 141° |
| 2026-04-28 16:18 | 19.76795 | 108.93973 | 29639 ft | 505 kts | 141° |
| 2026-04-28 16:18 | 19.74265 | 108.96570 | 29386 ft | 508 kts | 141° |
| 2026-04-28 16:18 | 19.71716 | 108.99173 | 29142 ft | 509 kts | 141° |
| 2026-04-28 16:18 | 19.69163 | 109.01777 | 28904 ft | 510 kts | 141° |
| 2026-04-28 16:19 | 19.66608 | 109.04386 | 28670 ft | 509 kts | 141° |
| 2026-04-28 16:19 | 19.64059 | 109.06989 | 28413 ft | 509 kts | 140° |
| 2026-04-28 16:19 | 19.61508 | 109.09596 | 28168 ft | 507 kts | 140° |
| 2026-04-28 16:19 | 19.58970 | 109.12189 | 27922 ft | 506 kts | 140° |
| 2026-04-28 16:20 | 19.56436 | 109.14776 | 27668 ft | 505 kts | 140° |
| 2026-04-28 16:20 | 19.53892 | 109.17326 | 27414 ft | 501 kts | 144° |
| 2026-04-28 16:20 | 19.51005 | 109.19292 | 27140 ft | 490 kts | 161° |
| 2026-04-28 16:20 | 19.47799 | 109.20345 | 26914 ft | 479 kts | 174° |
| 2026-04-28 16:21 | 19.44558 | 109.20978 | 26690 ft | 479 kts | 174° |
| 2026-04-28 16:21 | 19.41274 | 109.21597 | 26436 ft | 480 kts | 174° |
| 2026-04-28 16:21 | 19.37983 | 109.22223 | 26193 ft | 482 kts | 174° |
| 2026-04-28 16:21 | 19.34682 | 109.22863 | 25499 ft | 484 kts | 173° |
| 2026-04-28 16:22 | 19.31340 | 109.23529 | 24751 ft | 479 kts | 173° |
| 2026-04-28 16:22 | 19.28126 | 109.24182 | 23967 ft | 474 kts | 173° |
| 2026-04-28 16:22 | 19.24905 | 109.24841 | 23201 ft | 469 kts | 172° |
| 2026-04-28 16:22 | 19.21715 | 109.25496 | 22441 ft | 464 kts | 172° |
| 2026-04-28 16:23 | 19.18568 | 109.26141 | 21672 ft | 458 kts | 172° |
| 2026-04-28 16:23 | 19.15450 | 109.26765 | 20970 ft | 452 kts | 172° |
| 2026-04-28 16:23 | 19.12384 | 109.27393 | 20223 ft | 448 kts | 172° |
| 2026-04-28 16:23 | 19.09339 | 109.28022 | 19493 ft | 443 kts | 172° |
| 2026-04-28 16:24 | 19.06332 | 109.28642 | 18772 ft | 438 kts | 172° |
| 2026-04-28 16:24 | 19.03352 | 109.29253 | 18065 ft | 434 kts | 172° |
| 2026-04-28 16:24 | 19.00406 | 109.29855 | 17342 ft | 430 kts | 172° |
| 2026-04-28 16:24 | 18.97478 | 109.30452 | 16649 ft | 426 kts | 172° |
| 2026-04-28 16:25 | 18.94584 | 109.31042 | 15942 ft | 422 kts | 172° |
| 2026-04-28 16:25 | 18.91714 | 109.31625 | 15235 ft | 418 kts | 172° |
| 2026-04-28 16:25 | 18.88866 | 109.32203 | 14553 ft | 414 kts | 172° |
| 2026-04-28 16:25 | 18.86057 | 109.32775 | 13872 ft | 409 kts | 172° |
| 2026-04-28 16:26 | 18.83273 | 109.33342 | 13195 ft | 406 kts | 172° |
| 2026-04-28 16:26 | 18.80512 | 109.33904 | 12515 ft | 402 kts | 171° |
| 2026-04-28 16:26 | 18.77813 | 109.34452 | 11867 ft | 398 kts | 171° |
| 2026-04-28 16:26 | 18.75073 | 109.35008 | 11197 ft | 395 kts | 171° |
| 2026-04-28 16:27 | 18.72468 | 109.35539 | 11059 ft | 378 kts | 171° |
| 2026-04-28 16:27 | 18.69935 | 109.36055 | 10876 ft | 363 kts | 171° |
| 2026-04-28 16:27 | 18.65154 | 109.37027 | 10566 ft | 337 kts | 172° |
| 2026-04-28 16:28 | 18.62889 | 109.37488 | 10436 ft | 326 kts | 172° |
| 2026-04-28 16:28 | 18.60695 | 109.37932 | 10292 ft | 316 kts | 171° |
| 2026-04-28 16:28 | 18.58569 | 109.38362 | 10174 ft | 306 kts | 172° |
| 2026-04-28 16:28 | 18.56512 | 109.38778 | 10043 ft | 297 kts | 172° |
| 2026-04-28 16:29 | 18.52559 | 109.39585 | 9511 ft | 289 kts | 172° |
| 2026-04-28 16:29 | 18.48937 | 109.41223 | 8803 ft | 289 kts | 133° |
| 2026-04-28 16:30 | 18.47901 | 109.43001 | 8488 ft | 285 kts | 113° |
| 2026-04-28 16:30 | 18.47260 | 109.44963 | 8173 ft | 282 kts | 110° |
| 2026-04-28 16:30 | 18.46650 | 109.46924 | 7878 ft | 280 kts | 110° |
| 2026-04-28 16:30 | 18.46047 | 109.48828 | 7756 ft | 269 kts | 111° |
| 2026-04-28 16:31 | 18.45451 | 109.50661 | 7622 ft | 260 kts | 111° |
| 2026-04-28 16:31 | 18.44875 | 109.52438 | 7468 ft | 254 kts | 112° |
| 2026-04-28 16:31 | 18.44282 | 109.54184 | 7132 ft | 252 kts | 112° |
| 2026-04-28 16:31 | 18.43687 | 109.55909 | 6916 ft | 252 kts | 112° |
| 2026-04-28 16:32 | 18.43088 | 109.57650 | 6596 ft | 251 kts | 112° |
| 2026-04-28 16:32 | 18.41935 | 109.61011 | 6015 ft | 236 kts | 113° |
| 2026-04-28 16:32 | 18.41392 | 109.62588 | 5767 ft | 220 kts | 113° |
| 2026-04-28 16:33 | 18.40811 | 109.64012 | 5499 ft | 204 kts | 131° |
| 2026-04-28 16:33 | 18.40145 | 109.64634 | 5360 ft | 185 kts | 158° |
| 2026-04-28 16:33 | 18.38615 | 109.65129 | 5105 ft | 169 kts | 174° |
| 2026-04-28 16:33 | 18.37373 | 109.65301 | 4913 ft | 186 kts | 175° |
| 2026-04-28 16:34 | 18.36139 | 109.65467 | 4615 ft | 168 kts | 175° |
| 2026-04-28 16:34 | 18.35043 | 109.65412 | 4256 ft | 150 kts | 200° |
| 2026-04-28 16:34 | 18.34146 | 109.64949 | 4146 ft | 143 kts | 218° |
| 2026-04-28 16:34 | 18.33511 | 109.64172 | 3994 ft | 146 kts | 241° |
| 2026-04-28 16:35 | 18.33269 | 109.63123 | 3852 ft | 149 kts | 253° |
| 2026-04-28 16:35 | 18.33068 | 109.62076 | 3676 ft | 147 kts | 254° |
| 2026-04-28 16:35 | 18.32898 | 109.61021 | 3476 ft | 145 kts | 255° |
| 2026-04-28 16:35 | 18.32752 | 109.59961 | 3296 ft | 147 kts | 257° |
| 2026-04-28 16:36 | 18.32607 | 109.58887 | 3099 ft | 148 kts | 255° |
| 2026-04-28 16:36 | 18.32460 | 109.57819 | 2884 ft | 147 kts | 255° |
| 2026-04-28 16:36 | 18.32320 | 109.56764 | 2703 ft | 144 kts | 256° |
| 2026-04-28 16:36 | 18.32174 | 109.55662 | 2507 ft | 159 kts | 258° |
| 2026-04-28 16:37 | 18.32022 | 109.54500 | 2278 ft | 159 kts | 259° |
| 2026-04-28 16:37 | 18.31871 | 109.53357 | 2073 ft | 157 kts | 261° |
| 2026-04-28 16:37 | 18.31724 | 109.52212 | 1866 ft | 158 kts | 261° |
| 2026-04-28 16:38 | 18.31434 | 109.49995 | 1454 ft | 149 kts | 263° |
| 2026-04-28 16:38 | 18.31341 | 109.49286 | 1331 ft | 147 kts | 263° |
| 2026-04-28 16:38 | 18.31309 | 109.49042 | 1289 ft | 147 kts | 263° |
| 2026-04-28 16:38 | 18.31246 | 109.48557 | 1196 ft | 146 kts | 263° |
| 2026-04-28 16:39 | 18.31109 | 109.47506 | 1008 ft | 145 kts | 263° |
| 2026-04-28 16:39 | 18.30972 | 109.46453 | 815 ft | 145 kts | 263° |
| 2026-04-28 16:39 | 18.30835 | 109.45402 | 626 ft | 144 kts | 263° |
| 2026-04-28 16:39 | 18.30699 | 109.44358 | 420 ft | 144 kts | 263° |
| 2026-04-28 16:40 | 18.30566 | 109.43332 | 247 ft | 144 kts | 263° |
| 2026-04-28 16:40 | 18.30520 | 109.42980 | 182 ft | 144 kts | 263° |
| 2026-04-28 16:40 | 18.30422 | 109.42227 | 92 ft | 137 kts | 262° |
| 2026-04-28 16:40 | 18.30317 | 109.41424 | 87 ft | 82 kts | 262° |
| 2026-04-28 16:41 | 18.30278 | 109.41125 | 85 ft | 41 kts | 262° |
| 2026-04-28 16:41 | 18.30271 | 109.41071 | 86 ft | 3 kts | 262° |
| 2026-04-28 16:42 | 18.30263 | 109.41016 | 80 ft | 14 kts | 261° |
| 2026-04-28 16:42 | 18.30249 | 109.40911 | 78 ft | 13 kts | 267° |
| 2026-04-28 16:42 | 18.30300 | 109.40846 | 78 ft | 13 kts | 351° |
| 2026-04-28 16:42 | 18.30387 | 109.40833 | 80 ft | 13 kts | 352° |
| 2026-04-28 16:43 | 18.30466 | 109.40822 | 82 ft | 9 kts | 352° |
| 2026-04-28 16:43 | 18.30525 | 109.40814 | 81 ft | 8 kts | 352° |
| 2026-04-28 16:43 | 18.30582 | 109.40806 | 81 ft | 8 kts | 352° |
| 2026-04-28 16:43 | 18.30638 | 109.40798 | 84 ft | 8 kts | 352° |
| 2026-04-28 16:44 | 18.30690 | 109.40783 | 83 ft | 8 kts | 330° |
| 2026-04-28 16:44 | 18.30718 | 109.40738 | 80 ft | 7 kts | 280° |
| 2026-04-28 16:44 | 18.30715 | 109.40685 | 80 ft | 7 kts | 264° |
| 2026-04-28 16:44 | 18.30708 | 109.40634 | 82 ft | 7 kts | 262° |
| 2026-04-28 16:45 | 18.30702 | 109.40585 | 79 ft | 7 kts | 262° |
| 2026-04-28 16:45 | 18.30695 | 109.40533 | 83 ft | 7 kts | 262° |
| 2026-04-28 16:45 | 18.30688 | 109.40482 | 78 ft | 7 kts | 263° |
| 2026-04-28 16:45 | 18.30682 | 109.40434 | 78 ft | 7 kts | 262° |
| 2026-04-28 16:46 | 18.30676 | 109.40387 | 73 ft | 6 kts | 262° |
| 2026-04-28 16:46 | 18.30667 | 109.40341 | 75 ft | 6 kts | 249° |
| 2026-04-28 16:46 | 18.30648 | 109.40300 | 77 ft | 6 kts | 232° |
| 2026-04-28 16:46 | 18.30619 | 109.40290 | 75 ft | 4 kts | 177° |
| 2026-04-28 16:47 | 18.30584 | 109.40282 | 77 ft | 7 kts | 209° |
| 2026-04-28 16:47 | 18.30537 | 109.40253 | 72 ft | 7 kts | 201° |
| 2026-04-28 16:47 | 18.30483 | 109.40250 | 76 ft | 8 kts | 175° |
| 2026-04-28 16:47 | 18.30431 | 109.40266 | 69 ft | 8 kts | 139° |
| 2026-04-28 16:48 | 18.30419 | 109.40296 | 77 ft | 2 kts | 90° |
| 2026-04-28 16:48 | 18.30428 | 109.40311 | 74 ft | 2 kts | 44° |
| 2026-04-28 16:48 | 18.30440 | 109.40317 | 77 ft | 2 kts | 19° |
| 2026-04-28 16:48 | 18.30450 | 109.40319 | 77 ft | 0 kts | 6° |
| 2026-04-28 16:49 | 18.30453 | 109.40319 | 68 ft | 1 kts | 358° |
| 2026-04-28 16:49 | 18.30457 | 109.40318 | 77 ft | 1 kts | 356° |
| 2026-04-28 16:49 | 18.30462 | 109.40318 | 77 ft | 1 kts | 355° |
| 2026-04-28 16:49 | 18.30466 | 109.40317 | 77 ft | 1 kts | 354° |
| 2026-04-28 16:50 | 18.30471 | 109.40317 | 77 ft | 1 kts | 354° |
| 2026-04-28 16:50 | 18.30481 | 109.40316 | 77 ft | 2 kts | 354° |
| 2026-04-28 16:50 | 18.30488 | 109.40315 | 69 ft | 1 kts | 353° |
| 2026-04-28 16:50 | 18.30492 | 109.40314 | 77 ft | 0 kts | 353° |